Terminal Aerodrome Forecast
Issued by NWS Flagstaff, AZ

Home | Current Version | Previous Version | Text Only | Print | Product List | Glossary On
Versions: 1 2 3 4 5 6 7 8 9 10 11 12 13 14 15
952
FTUS45 KFGZ 250540
TAFINW
TAF
KINW 250540Z 2506/2606 11007KT P6SM SCT050 BKN100
     FM251800 22012KT P6SM BKN080 PROB30 2519/2524 -TSRA OVC050CB
     FM260000 22011KT P6SM BKN250=

USA.gov is the U.S. government's official web portal to all federal, state and local government web resources and services.